x

East Bahamas - 335 Nm East Of San Salvador Is, Bahamas (41046) Wave Buoy

1:50am - Fri 28th Aug 2015 All times are UTC.

  • Sig Wave height 6.2ft
  • Swell Direction
  • Peak Period 11s
  • Average Period 6s
  • Wind
    18mph, 22mph gusts
  • Sea Temp 86°f
  • Air Temp 85°f
  • Sea Pressure 1018.2mb

More Historic Weather Station data

Upgrade to MSW Pro to gain access to the past 30 days of data for over 8000 Wavebouys and Weather Stations around the globe.

Join Pro

Comparision Forecast

View Surf forecast
   
Fri 08/28 1:50am 6ft 11s 6s 18 22 mph 1018.2mb 86f 85f
12:50am 6ft 9s 6s 20 22 mph 1017.4mb 86f 86f
Thu 08/27 11:50pm 5.5ft 11s 6s 20 22 mph 1016.9mb 86f 85f
10:50pm 6ft 10s 6s 16 18 mph 1016.6mb 86f 85f
9:50pm 5ft 8s 6s 13 16 mph 1016.4mb 86f 85f
8:50pm 5.5ft 8s 6s 16 18 mph 1016.5mb 86f 85f
7:50pm 5ft 8s 6s 11 16 mph 1016.5mb 86f 85f
6:50pm 5ft 11s 6s 13 18 mph 1016.5mb 86f 85f
5:50pm 4.5ft 8s 6s 13 16 mph 1017mb 86f 85f
4:50pm 5ft 8s 6s 13 16 mph 1017.8mb 86f 85f
3:50pm 4.5ft 8s 5s 16 18 mph 1018mb 86f 85f
2:50pm 4ft 8s 5s 13 16 mph 1018.4mb 86f 85f
1:50pm 4.5ft 8s 5s 16 18 mph 1017.9mb 85f 85f
12:50pm 4.5ft 7s 6s 13 16 mph 1017.6mb 85f 85f
11:50am 4ft 8s 5s 13 16 mph 1017.1mb 85f 85f
10:50am 4ft 7s 5s 13 16 mph 1016.8mb 85f 84f
9:50am 4ft 8s 6s 13 16 mph 1016.4mb 85f 84f
8:50am 4ft 8s 6s 13 18 mph 1016.4mb 85f 84f
7:50am 4ft 8s 6s 16 18 mph 1016.4mb 85f 84f
6:50am 4ft 7s 6s 13 18 mph 1016.7mb 85f 84f
5:50am 4ft 6s 6s 7 9 mph 1017.1mb 85f 84f
4:50am 4.5ft 8s 6s 9 11 mph 1017.6mb 85f 85f
2:50am 4ft 6s 6s 13 16 mph 1018.4mb 85f 85f
1:50am 4ft 8s 5s 13 16 mph 1018.3mb 85f 85f
12:50am 4ft 7s 6s 13 16 mph 1017.9mb 85f 85f
Wed 08/26 11:50pm 4.5ft 8s 6s 11 13 mph 1017.2mb 86f 85f
10:50pm 4.5ft 8s 6s 11 16 mph 1016.9mb 86f 85f
9:50pm 4ft 8s 5s 11 13 mph 1016.8mb 86f 85f
8:50pm 4.5ft 8s 6s 11 13 mph 1016.6mb 86f 85f
7:50pm 4.5ft 8s 6s 11 13 mph 1016.7mb 86f 85f
6:50pm 4.5ft 7s 6s 13 16 mph 1016.6mb 86f 85f
5:50pm 4.5ft 8s 6s 11 13 mph 1017.5mb 85f 85f
4:50pm 4.5ft 8s 6s 11 13 mph 1017.9mb 85f 85f
3:50pm 4.5ft 7s 6s 13 16 mph 1018.3mb 85f 85f
2:50pm 4.5ft 8s 5s 13 16 mph 1018.2mb 85f 85f
1:50pm 4.5ft 7s 5s 13 16 mph 1017.9mb 85f 85f
12:50pm 4.5ft 8s 6s 13 18 mph 1017.2mb 85f 85f
11:50am 4.5ft 8s 6s 13 16 mph 1016.8mb 85f 85f
10:50am 4.5ft 8s 6s 16 18 mph 1016.3mb 85f 84f
9:50am 4.5ft 8s 6s 16 18 mph 1016mb 85f 84f
8:50am 4.5ft 9s 6s 16 18 mph 1015.4mb 85f 84f
7:50am 4.5ft 8s 6s 13 18 mph 1015.4mb 85f 84f
6:50am 4.5ft 9s 6s 13 16 mph 1015.6mb 85f 84f
5:50am 4.5ft 10s 6s 13 16 mph 1016.2mb 85f 84f
4:50am 4.5ft 9s 6s 13 16 mph 1016.5mb 85f 85f
3:50am 4.5ft 9s 6s 11 13 mph 1016.7mb 85f 84f
2:50am 4.5ft 9s 6s 11 13 mph 1017mb 85f 84f
1:50am 4.5ft 9s 6s 13 16 mph 1017.1mb 85f 84f
12:50am 4.5ft 9s 6s 13 18 mph 1016.7mb 85f 84f
Tue 08/25 11:50pm 5ft 8s 6s 11 13 mph 1016.2mb 85f 84f
10:50pm 5ft 9s 6s 11 13 mph 1016.1mb 85f 85f
9:50pm 5ft 8s 6s 11 13 mph 1015.8mb 85f 85f
8:50pm 4.5ft 10s 6s 11 13 mph 1015.7mb 85f 85f
7:50pm 5ft 10s 6s 11 13 mph 1015.7mb 85f 85f
6:50pm 5ft 9s 6s 11 16 mph 1015.8mb 85f 85f
5:50pm 5ft 10s 6s 13 16 mph 1016.5mb 85f 85f
4:50pm 5ft 10s 6s 11 13 mph 1017.1mb 85f 85f
3:50pm 5ft 10s 6s 13 16 mph 1017.1mb 85f 85f
2:50pm 5ft 10s 6s 13 16 mph 1017mb 85f 85f
1:50pm 5ft 10s 6s 16 18 mph 1016.8mb 85f 85f
12:50pm 5ft 9s 6s 16 18 mph 1016.4mb 85f 85f
11:50am 4.5ft 10s 6s 13 18 mph 1015.8mb 85f 85f
10:50am 4.5ft 10s 6s 13 16 mph 1015.4mb 85f 84f
9:50am 4.5ft 10s 6s 13 18 mph 1015mb 85f 84f
8:50am 4ft 10s 5s 13 18 mph 1014.7mb 85f 84f
7:50am 4.5ft 11s 6s 13 18 mph 1014.6mb 85f 84f
6:50am 4ft 11s 5s 16 18 mph 1015mb 85f 84f
5:50am 3.5ft 10s 5s 16 18 mph 1015.5mb 85f 84f
4:50am 3.5ft 11s 5s 13 18 mph 1015.8mb 85f 84f
3:50am 3.5ft 11s 5s 16 18 mph 1016.3mb 85f 84f
2:50am 3.5ft 11s 5s 13 16 mph 1016.2mb 85f 84f
1:50am 3.5ft 11s 5s 11 13 mph 1016.1mb 85f 85f
12:50am 3.5ft 10s 5s 11 16 mph 1015.9mb 85f 85f
Mon 08/24 11:50pm 3.5ft 10s 5s 13 16 mph 1015.4mb 85f 85f
10:50pm 3.5ft 10s 5s 13 16 mph 1014.8mb 85f 85f
9:50pm 3.5ft 10s 5s 13 18 mph 1014.6mb 85f 85f
8:50pm 3.5ft 10s 5s 11 16 mph 1014.7mb 85f 85f
7:50pm 3.5ft 11s 5s 11 16 mph 1014.7mb 85f 85f
6:50pm 3.5ft 8s 5s 11 16 mph 1015mb 85f 85f
5:50pm 3.5ft 10s 5s 13 16 mph 1015.7mb 85f 85f
4:50pm 3.5ft 10s 5s 11 13 mph 1016.4mb 85f 84f
3:50pm 3.5ft 11s 5s 11 13 mph 1016.8mb 85f 84f
1:50pm 3.5ft 10s 5s 11 13 mph 1016.7mb 85f 84f
12:50pm 3.5ft 11s 5s 11 13 mph 1016mb 85f 84f
11:50am 3.5ft 10s 5s 11 13 mph 1015.8mb 85f 84f
10:50am 3.5ft 11s 5s 16 20 mph 1015.2mb 85f 82f
9:50am 3.5ft 10s 5s 11 13 mph 1015mb 85f 83f
8:50am 3ft 11s 5s 11 13 mph 1014.6mb 85f 83f
7:50am 3.5ft 10s 5s 11 13 mph 1014.6mb 85f 83f
6:50am 3.5ft 10s 5s 13 16 mph 1014.5mb 85f 84f
5:50am 3.5ft 11s 6s 11 16 mph 1014.8mb 85f 83f
4:50am 3.5ft 11s 6s 11 13 mph 1015mb 85f 84f
3:50am 3.5ft 11s 6s 11 13 mph 1015.3mb 85f 84f
2:50am 3.5ft 11s 5s 11 16 mph 1015.6mb 85f 84f